Data for 04/10/2008

Time Sea-Level Adjusted Pressure Absolute Pressure Temperature Relative Humidity Dew Point   
(mb) (inHg) (mb) (inHg) (C) (F) (%) (C) (F)
00:05 1012 29.88 841 24.83 1.4 34.4 74 -2.8 27
00:10 1012 29.88 841 24.83 1.4 34.5 73 -2.9 26.8
00:15 1012 29.88 841 24.83 1.3 34.4 72 -3.1 26.4
00:20 1012 29.88 841 24.83 1.3 34.3 72 -3.3 26.1
00:25 1012 29.88 841 24.83 1.4 34.6 70 -3.5 25.7
00:30 1012 29.88 841 24.83 1.4 34.5 69 -3.6 25.5
00:35 1012 29.88 841 24.83 1.3 34.3 69 -3.8 25.2
00:40 1012 29.88 841 24.83 1.3 34.3 69 -3.8 25.2
00:45 1012 29.88 842 24.86 1.3 34.4 69 -3.8 25.2
00:50 1012 29.88 842 24.86 1.3 34.3 69 -3.7 25.3
00:55 1012 29.88 842 24.86 1.3 34.3 70 -3.7 25.4
01:00 1012 29.88 842 24.86 1.2 34.1 71 -3.6 25.6
01:05 1012 29.88 842 24.86 1 33.8 71 -3.6 25.4
01:10 1013 29.91 842 24.86 0.9 33.6 71 -3.8 25.2
01:15 1013 29.91 842 24.86 0.9 33.6 71 -3.7 25.3
01:20 1013 29.91 842 24.86 1 33.8 71 -3.6 25.5
01:25 1013 29.91 842 24.86 0.9 33.7 71 -3.8 25.2
01:30 1013 29.91 842 24.86 1 33.8 70 -3.8 25.2
01:35 1013 29.91 842 24.86 0.9 33.6 71 -3.8 25.2
01:40 1013 29.91 842 24.86 0.8 33.4 72 -3.7 25.3
01:45 1013 29.91 842 24.86 0.6 33.1 72 -3.8 25.1
01:50 1013 29.91 842 24.86 0.4 32.8 73 -3.9 25
01:55 1013 29.91 842 24.86 0.4 32.7 73 -3.9 25.1
02:00 1013 29.91 842 24.86 0.4 32.8 73 -3.8 25.1
02:05 1013 29.91 842 24.86 0.6 33.1 73 -3.8 25.2
02:10 1013 29.91 842 24.86 0.7 33.2 72 -3.7 25.3
02:15 1013 29.91 842 24.86 0.6 33.1 73 -3.7 25.3
02:20 1013 29.91 842 24.86 0.7 33.2 73 -3.7 25.4
02:25 1013 29.91 842 24.86 0.7 33.3 72 -3.7 25.4
02:30 1013 29.91 842 24.86 0.7 33.2 73 -3.6 25.5
02:35 1013 29.91 842 24.86 0.7 33.3 73 -3.6 25.6
02:40 1013 29.91 842 24.86 0.7 33.2 74 -3.5 25.8
02:45 1013 29.91 842 24.86 0.8 33.4 74 -3.4 26
02:50 1013 29.91 842 24.86 0.7 33.3 74 -3.3 26.1
02:55 1013 29.91 842 24.86 0.6 33.1 75 -3.3 26
03:00 1013 29.91 842 24.86 0.6 33 75 -3.4 25.9
03:05 1013 29.91 842 24.86 0.5 32.9 75 -3.4 25.9
03:10 1013 29.91 842 24.86 0.4 32.6 76 -3.4 26
03:15 1013 29.91 842 24.86 0.4 32.6 77 -3.3 26.1
03:20 1013 29.91 842 24.86 0.4 32.7 77 -3.2 26.3
03:25 1013 29.91 842 24.86 0.4 32.7 79 -2.9 26.7
03:30 1013 29.91 842 24.86 0.2 32.4 80 -2.8 27
03:35 1013 29.91 842 24.86 0.2 32.4 81 -2.7 27.2
03:40 1013 29.91 842 24.86 0.3 32.5 81 -2.6 27.3
03:45 1013 29.91 842 24.86 0.2 32.3 82 -2.5 27.4
03:50 1013 29.91 842 24.86 -0 32 83 -2.5 27.5
03:55 1013 29.91 843 24.89 -0.2 31.7 85 -2.5 27.5
04:00 1013 29.91 843 24.89 -0.2 31.7 86 -2.3 27.9
04:05 1013 29.91 843 24.89 -0.2 31.7 87 -2 28.4
04:10 1013 29.91 843 24.89 -0.2 31.6 89 -1.8 28.7
04:15 1014 29.94 843 24.89 -0.4 31.3 90 -1.8 28.7
04:20 1014 29.94 843 24.89 -0.6 30.8 92 -1.8 28.7
04:25 1014 29.94 843 24.89 -0.9 30.4 93 -1.9 28.6
04:30 1014 29.94 843 24.89 -1 30.3 94 -1.8 28.7
04:35 1014 29.94 843 24.89 -0.9 30.3 95 -1.7 28.9
04:40 1014 29.94 843 24.89 -1 30.2 95 -1.7 29
04:45 1014 29.94 843 24.89 -0.9 30.3 96 -1.6 29.2
04:50 1014 29.94 843 24.89 -0.9 30.4 96 -1.5 29.3
04:55 1014 29.94 843 24.89 -0.9 30.4 96 -1.4 29.4
05:00 1014 29.94 843 24.89 -0.8 30.6 96 -1.4 29.6
05:05 1014 29.94 843 24.89 -0.8 30.6 96 -1.3 29.6
05:10 1014 29.94 843 24.89 -0.9 30.4 97 -1.4 29.5
05:15 1014 29.94 843 24.89 -0.9 30.3 97 -1.4 29.5
05:20 1014 29.94 843 24.89 -1 30.3 97 -1.4 29.5
05:25 1014 29.94 843 24.89 -0.9 30.3 97 -1.3 29.6
05:30 1014 29.94 843 24.89 -0.9 30.3 97 -1.3 29.7
05:35 1014 29.94 843 24.89 -0.9 30.3 97 -1.3 29.7
05:40 1014 29.94 843 24.89 -1 30.1 98 -1.4 29.5
05:45 1014 29.94 843 24.89 -1.1 30 97 -1.5 29.3
05:50 1014 29.94 844 24.92 -1.2 29.8 97 -1.6 29.1
05:55 1014 29.94 844 24.92 -1.4 29.6 97 -1.7 28.9
06:00 1014 29.94 844 24.92 -1.4 29.4 97 -1.8 28.7
06:05 1014 29.94 844 24.92 -1.4 29.4 97 -1.8 28.7
06:10 1015 29.97 844 24.92 -1.5 29.3 97 -1.9 28.7
06:15 1015 29.97 844 24.92 -1.4 29.4 97 -1.9 28.6
06:20 1015 29.97 844 24.92 -1.4 29.5 97 -1.9 28.6
06:25 1015 29.97 844 24.92 -1.5 29.3 96 -2 28.4
06:30 1015 29.97 844 24.92 -1.6 29.2 96 -2.1 28.3
06:35 1015 29.97 844 24.92 -1.5 29.2 97 -2 28.4
06:40 1015 29.97 844 24.92 -1.6 29.2 97 -2 28.3
06:45 1015 29.97 844 24.92 -1.7 29 97 -2.1 28.2
06:50 1015 29.97 844 24.92 -1.7 28.9 97 -2.1 28.3
06:55 1015 29.97 844 24.92 -1.7 29 98 -2 28.3
07:00 1015 29.97 844 24.92 -1.8 28.8 98 -2.1 28.3
07:05 1015 29.97 844 24.92 -1.9 28.6 98 -2.1 28.1
07:10 1015 29.97 845 24.95 -1.9 28.5 98 -2.1 28.2
07:15 1015 29.97 845 24.95 -2 28.5 99 -2.1 28.2
07:20 1015 29.97 845 24.95 -1.9 28.5 99 -2.1 28.3
07:25 1016 30 845 24.95 -1.9 28.5 99 -2 28.4
07:30 1016 30 845 24.95 -1.9 28.5 100 -2 28.4
07:35 1016 30 845 24.95 -1.9 28.7 164 5 41
07:40 1016 30 845 24.95 -1.9 28.6 164 5 41
07:45 1016 30 845 24.95 -2 28.4 164 4.9 40.9
07:50 1016 30 845 24.95 -2.1 28.2 164 4.8 40.6
07:55 1016 30 845 24.95 -2.2 28 164 4.6 40.4
08:00 1016 30 845 24.95 -2.3 27.8 164 4.6 40.2
08:05 1016 30 845 24.95 -2.3 27.9 164 4.6 40.3
08:10 1016 30 845 24.95 -2.2 28 164 4.7 40.4
08:15 1016 30 846 24.98 -2.2 28.1 164 4.7 40.5
08:20 1016 30 846 24.98 -2.1 28.2 164 4.8 40.6
08:25 1016 30 846 24.98 -2.1 28.2 164 4.8 40.7
08:30 1017 30.03 846 24.98 -2 28.4 164 4.9 40.8
08:35 1017 30.03 846 24.98 -2 28.4 164 4.9 40.9
08:40 1017 30.03 846 24.98 -2.1 28.2 164 4.8 40.7
08:45 1017 30.03 846 24.98 -2 28.4 164 4.9 40.8
08:50 1017 30.03 846 24.98 -2 28.3 164 4.9 40.8
08:55 1017 30.03 846 24.98 -2.1 28.3 164 4.8 40.7
09:00 1017 30.03 846 24.98 -2.2 28 164 4.7 40.5
09:05 1017 30.03 846 24.98 -2.1 28.2 164 4.8 40.7
09:10 1017 30.03 846 24.98 -2.1 28.3 164 4.9 40.8
09:15 1017 30.03 846 24.98 -2 28.3 164 4.9 40.8
09:20 1017 30.03 846 24.98 -2.1 28.3 164 4.9 40.8
09:25 1017 30.03 846 24.98 -1.9 28.5 164 5 41
09:30 1017 30.03 846 24.98 -1.8 28.7 164 5.1 41.2
09:35 1017 30.03 846 24.98 -1.8 28.8 164 5.2 41.3
09:40 1017 30.03 846 24.98 -1.7 29 164 5.2 41.4
09:45 1017 30.03 846 24.98 -1.4 29.5 164 5.5 42
09:50 1017 30.03 846 24.98 -1.1 30 164 5.9 42.6
09:55 1017 30.03 846 24.98 -1.3 29.6 164 5.6 42.1
10:00 1017 30.03 847 25.01 -1.5 29.3 164 5.4 41.8
10:05 1017 30.03 847 25.01 -1.2 29.8 164 5.7 42.3
10:10 1017 30.03 847 25.01 -1 30.1 164 5.9 42.7
10:15 1018 30.06 847 25.01 -0.9 30.3 164 6 42.8
10:20 1018 30.06 847 25.01 -0.6 31 164 6.4 43.5
10:25 1018 30.06 847 25.01 -0.3 31.5 164 6.7 44.1
10:30 1018 30.06 847 25.01 -0.1 31.9 164 6.9 44.5
10:35 1018 30.06 847 25.01 -0.1 31.9 164 7 44.5
10:40 1018 30.06 847 25.01 -0.2 31.6 164 6.8 44.2
10:45 1018 30.06 847 25.01 0.1 32.2 164 7.1 44.8
10:50 1018 30.06 847 25.01 0 32 164 7 44.6
10:55 1018 30.06 847 25.01 0.6 33 164 7.6 45.7
11:00 1018 30.06 847 25.01 0.8 33.5 164 7.9 46.1
11:05 1018 30.06 847 25.01 0.9 33.7 122 3.7 38.6
11:10 1018 30.06 847 25.01 1.3 34.3 85 -1 30.3
11:15 1018 30.06 847 25.01 1.9 35.4 79 -1.4 29.5
11:20 1018 30.06 847 25.01 1.5 34.7 80 -1.6 29.1
11:25 1018 30.06 847 25.01 1.4 34.6 81 -1.5 29.3
11:30 1018 30.06 847 25.01 1.5 34.6 80 -1.7 29
11:35 1018 30.06 847 25.01 0.8 33.5 82 -1.9 28.6
11:40 1018 30.06 847 25.01 0.7 33.3 84 -1.8 28.8
11:45 1018 30.06 847 25.01 1 33.9 80 -2 28.4
11:50 1018 30.06 847 25.01 0.4 32.7 81 -2.5 27.4
11:55 1018 30.06 847 25.01 0.7 33.2 79 -2.6 27.3
12:00 1018 30.06 847 25.01 1.4 34.5 74 -2.7 27.1
12:05 1018 30.06 847 25.01 1.5 34.7 74 -2.6 27.3
12:10 1018 30.06 847 25.01 1.2 34.1 74 -2.9 26.8
12:15 1018 30.06 847 25.01 0.6 33.2 76 -3 26.5
12:20 1018 30.06 847 25.01 0.6 33.1 78 -2.8 27
12:25 1018 30.06 847 25.01 0.4 32.7 78 -3 26.6
12:30 1018 30.06 847 25.01 0.6 33 81 -2.3 27.9
12:35 1018 30.06 847 25.01 1.6 34.9 75 -2.3 27.9
12:40 1018 30.06 847 25.01 1.4 34.6 74 -2.7 27.1
12:45 1017 30.03 847 25.01 1.3 34.3 72 -3.2 26.3
12:50 1017 30.03 847 25.01 1.7 35.1 70 -3.2 26.3
12:55 1017 30.03 847 25.01 1.6 34.9 69 -3.4 25.8
13:00 1017 30.03 847 25.01 1.7 35.1 66 -3.9 25
13:05 1017 30.03 847 25.01 1.7 35.1 65 -4.1 24.6
13:10 1017 30.03 846 24.98 2.7 36.8 65 -3.2 26.3
13:15 1017 30.03 846 24.98 4 39.3 55 -4.2 24.4
13:20 1017 30.03 846 24.98 3.6 38.5 57 -4 24.7
13:25 1017 30.03 846 24.98 4 39.2 59 -3.2 26.3
13:30 1017 30.03 846 24.98 2.4 36.4 65 -3.4 25.8
13:35 1017 30.03 846 24.98 2.2 35.9 63 -4.1 24.7
13:40 1017 30.03 846 24.98 2.2 36 65 -3.6 25.5
13:45 1017 30.03 846 24.98 2.6 36.6 63 -3.8 25.1
13:50 1017 30.03 846 24.98 3.5 38.2 60 -3.6 25.4
13:55 1017 30.03 846 24.98 3.9 39.1 56 -4.1 24.6
14:00 1017 30.03 846 24.98 3.2 37.8 59 -4 24.8
14:05 1017 30.03 846 24.98 3.5 38.2 55 -4.8 23.3
14:10 1017 30.03 846 24.98 3.6 38.5 55 -4.5 23.9
14:15 1017 30.03 846 24.98 2.8 37 62 -3.9 25
14:20 1017 30.03 846 24.98 2.3 36.1 62 -4.3 24.3
14:25 1017 30.03 846 24.98 1.4 34.6 65 -4.5 23.9
14:30 1017 30.03 846 24.98 1.4 34.6 64 -4.7 23.6
14:35 1017 30.03 846 24.98 1.8 35.3 63 -4.6 23.8
14:40 1017 30.03 846 24.98 2.4 36.3 61 -4.4 24.2
14:45 1017 30.03 846 24.98 2.9 37.2 60 -4.1 24.6
14:50 1017 30.03 846 24.98 3.8 38.8 52 -5.3 22.5
14:55 1017 30.03 846 24.98 3.7 38.7 50 -5.7 21.8
15:00 1017 30.03 846 24.98 3.9 39 49 -5.8 21.5
15:05 1017 30.03 846 24.98 5.2 41.3 45 -5.7 21.7
15:10 1017 30.03 846 24.98 4.9 40.7 47 -5.7 21.8
15:15 1017 30.03 846 24.98 4.9 40.9 44 -6.4 20.5
15:20 1017 30.03 846 24.98 4.6 40.3 46 -6 21.2
15:25 1017 30.03 846 24.98 4 39.3 44 -7.1 19.3
15:30 1017 30.03 846 24.98 4.4 39.9 43 -7.1 19.1
15:35 1017 30.03 846 24.98 4.9 40.8 42 -7.1 19.2
15:40 1017 30.03 846 24.98 5.2 41.3 38 -7.9 17.8
15:45 1017 30.03 846 24.98 5.7 42.3 38 -7.4 18.8
15:50 1017 30.03 846 24.98 5.4 41.8 40 -7.2 19
15:55 1017 30.03 846 24.98 6 42.7 37 -7.7 18.1
16:00 1017 30.03 846 24.98 5.8 42.5 42 -6 21.3
16:05 1017 30.03 846 24.98 4.3 39.7 51 -5 23
16:10 1017 30.03 846 24.98 3.9 38.9 52 -5.2 22.7
16:15 1017 30.03 846 24.98 3.9 39 52 -5.1 22.9
16:20 1017 30.03 847 25.01 3.6 38.5 56 -4.5 23.9
16:25 1017 30.03 847 25.01 3 37.3 57 -4.7 23.6
16:30 1017 30.03 847 25.01 3.5 38.3 52 -5.3 22.4
16:35 1017 30.03 847 25.01 3.8 38.8 49 -5.8 21.5
16:40 1018 30.06 847 25.01 4.7 40.4 44 -6.4 20.4
16:45 1018 30.06 847 25.01 4.7 40.5 43 -6.7 19.9
16:50 1018 30.06 847 25.01 5.3 41.6 41 -6.9 19.6
16:55 1018 30.06 847 25.01 6 42.9 38 -7.3 18.8
17:00 1018 30.06 847 25.01 5.7 42.2 37 -7.7 18.1
17:05 1018 30.06 847 25.01 5.1 41.2 40 -7.3 18.9
17:10 1018 30.06 847 25.01 5.9 42.6 36 -8.1 17.5
17:15 1018 30.06 847 25.01 6.6 43.8 35 -7.8 18
17:20 1018 30.06 847 25.01 6.1 43 35 -8.2 17.3
17:25 1018 30.06 847 25.01 5 41 36 -8.7 16.3
17:30 1018 30.06 847 25.01 5.7 42.2 32 -9.6 14.7
17:35 1018 30.06 847 25.01 5.6 42.1 32 -10 13.9
17:40 1018 30.06 847 25.01 5.4 41.6 31 -10.5 13
17:45 1018 30.06 847 25.01 5.2 41.4 32 -10 14
17:50 1018 30.06 847 25.01 5.3 41.5 33 -9.7 14.5
17:55 1018 30.06 847 25.01 5.4 41.7 33 -9.5 14.9
18:00 1018 30.06 847 25.01 4.9 40.9 33 -9.8 14.3
18:05 1018 30.06 847 25.01 4.6 40.3 34 -10 14
18:10 1018 30.06 847 25.01 4.6 40.2 33 -10.2 13.6
18:15 1018 30.06 847 25.01 4.3 39.8 35 -9.9 14.2
18:20 1018 30.06 847 25.01 4.1 39.4 35 -9.9 14.1
18:25 1018 30.06 847 25.01 4.1 39.3 36 -9.9 14.2
18:30 1018 30.06 847 25.01 4.1 39.3 36 -9.7 14.5
18:35 1018 30.06 847 25.01 4.1 39.4 39 -8.5 16.7
18:40 1018 30.06 848 25.04 3.8 38.8 43 -7.8 18
18:45 1018 30.06 848 25.04 3.7 38.7 42 -8 17.7
18:50 1019 30.09 848 25.04 3.7 38.7 43 -7.7 18.1
18:55 1019 30.09 848 25.04 3.2 37.7 48 -6.7 19.9
19:00 1019 30.09 848 25.04 2.6 36.8 52 -6.2 20.8
19:05 1019 30.09 848 25.04 2.3 36.1 53 -6.4 20.4
19:10 1019 30.09 848 25.04 2.3 36.2 53 -6.2 20.8
19:15 1019 30.09 848 25.04 2.6 36.6 51 -6.6 20.1
19:20 1019 30.09 848 25.04 2.5 36.5 52 -6.5 20.4
19:25 1019 30.09 848 25.04 2.7 36.8 51 -6.5 20.2
19:30 1019 30.09 848 25.04 2.9 37.2 51 -6.3 20.7
19:35 1019 30.09 848 25.04 2.9 37.3 54 -5.6 21.9
19:40 1019 30.09 848 25.04 2.8 37.1 55 -5.4 22.3
19:45 1019 30.09 848 25.04 2.6 36.6 58 -5 23.1
19:50 1019 30.09 849 25.07 2.2 36 59 -4.9 23.2
19:55 1019 30.09 849 25.07 1.9 35.4 62 -4.7 23.6
20:00 1020 30.12 849 25.07 1.7 35 65 -4.2 24.4
20:05 1020 30.12 849 25.07 1.1 34 68 -4 24.8
20:10 1020 30.12 849 25.07 0.9 33.5 71 -3.7 25.3
20:15 1020 30.12 849 25.07 0.7 33.3 73 -3.7 25.4
20:20 1020 30.12 849 25.07 0.4 32.7 76 -3.4 25.9
20:25 1020 30.12 849 25.07 -0.2 31.7 80 -3.3 26.1
20:30 1020 30.12 850 25.1 -0.4 31.2 84 -2.8 27
20:35 1020 30.12 850 25.1 -0.5 31.1 86 -2.6 27.3
20:40 1021 30.15 850 25.1 -0.8 30.6 88 -2.5 27.6
20:45 1021 30.15 850 25.1 -0.9 30.4 90 -2.3 27.9
20:50 1021 30.15 850 25.1 -0.9 30.3 91 -2.2 28.1
20:55 1021 30.15 850 25.1 -0.9 30.4 93 -2 28.4
21:00 1021 30.15 850 25.1 -0.9 30.4 93 -1.8 28.7
21:05 1021 30.15 850 25.1 -0.9 30.4 94 -1.7 28.9
21:10 1021 30.15 850 25.1 -0.9 30.4 94 -1.7 28.9
21:15 1021 30.15 850 25.1 -1 30.1 94 -1.8 28.7
21:20 1021 30.15 850 25.1 -1 30.1 96 -1.6 29
21:25 1021 30.15 850 25.1 -0.9 30.4 96 -1.5 29.3
21:30 1021 30.15 850 25.1 -1 30.2 96 -1.6 29.2
21:35 1021 30.15 850 25.1 -1 30.2 96 -1.6 29.2
21:40 1021 30.15 850 25.1 -1 30.2 96 -1.6 29.2
21:45 1021 30.15 850 25.1 -0.9 30.3 96 -1.6 29.2
21:50 1021 30.15 850 25.1 -0.9 30.3 95 -1.6 29.1
21:55 1021 30.15 850 25.1 -0.7 30.7 94 -1.6 29.2
22:00 1021 30.15 850 25.1 -0.7 30.7 93 -1.7 28.9
22:05 1021 30.15 850 25.1 -0.7 30.7 92 -1.9 28.6
22:10 1021 30.15 850 25.1 -0.8 30.7 92 -1.9 28.7
22:15 1021 30.15 850 25.1 -0.9 30.4 93 -1.9 28.6
22:20 1021 30.15 850 25.1 -1.1 30.1 92 -2.1 28.1
22:25 1021 30.15 850 25.1 -1.1 30.1 92 -2.3 27.9
22:30 1021 30.15 850 25.1 -0.9 30.4 88 -2.6 27.3
22:35 1021 30.15 850 25.1 -0.7 30.8 86 -2.7 27.1
22:40 1021 30.15 851 25.13 -0.5 31.2 85 -2.7 27.1
22:45 1021 30.15 851 25.13 -0.4 31.3 84 -2.8 27
22:50 1021 30.15 851 25.13 -0.3 31.5 82 -3 26.6
22:55 1021 30.15 851 25.13 -0.3 31.5 80 -3.3 26.1
23:00 1021 30.15 851 25.13 -0.1 31.8 78 -3.4 25.8
23:05 1022 30.18 851 25.13 0 32.1 78 -3.4 25.9
23:10 1022 30.18 851 25.13 0.1 32.2 76 -3.6 25.4
23:15 1022 30.18 851 25.13 0.2 32.4 73 -4 24.8
23:20 1022 30.18 851 25.13 0.3 32.6 73 -3.9 24.9
23:25 1022 30.18 851 25.13 0.2 32.4 73 -4 24.8
23:30 1022 30.18 851 25.13 0.3 32.5 73 -4 24.8
23:35 1022 30.18 851 25.13 0.3 32.5 71 -4.3 24.2
23:40 1022 30.18 851 25.13 0.4 32.6 70 -4.4 24
23:45 1022 30.18 851 25.13 0.4 32.7 73 -4 24.8
23:50 1022 30.18 851 25.13 0.1 32.3 74 -3.9 24.9
23:55 1022 30.18 851 25.13 0.2 32.4 72 -4.2 24.5
24:00 1022 30.18 851 25.13 0.3 32.6 72 -4.1 24.5